createdAt,value
2018-09-30T00:00:33.247Z,5.10
2018-09-30T00:03:01.800Z,5.10
2018-09-30T00:05:30.441Z,5.10
2018-09-30T00:07:58.971Z,5.10
2018-09-30T00:10:28.247Z,5.10
2018-09-30T00:12:56.756Z,5.10
2018-09-30T00:15:25.310Z,5.10
2018-09-30T00:17:53.964Z,5.10
2018-09-30T00:20:22.458Z,5.00
2018-09-30T00:22:51.006Z,5.00
2018-09-30T00:25:24.808Z,5.00
2018-09-30T00:27:53.377Z,5.00
2018-09-30T00:30:21.899Z,5.00
2018-09-30T00:32:50.789Z,5.00
2018-09-30T00:35:19.270Z,5.00
2018-09-30T00:37:47.768Z,5.00
2018-09-30T00:40:16.231Z,5.00
2018-09-30T00:42:44.767Z,5.00
2018-09-30T00:45:13.859Z,5.00
2018-09-30T00:47:42.453Z,5.00
2018-09-30T00:50:11.227Z,4.90
2018-09-30T00:52:39.799Z,4.90
2018-09-30T00:55:08.288Z,4.90
2018-09-30T00:57:36.796Z,4.90
2018-09-30T01:00:05.850Z,4.80
2018-09-30T01:02:34.383Z,4.80
2018-09-30T01:05:02.955Z,4.80
2018-09-30T01:07:31.528Z,4.80
2018-09-30T01:10:00.064Z,4.80
2018-09-30T01:12:28.611Z,4.80
2018-09-30T01:14:57.170Z,4.70
2018-09-30T01:17:25.676Z,4.70
2018-09-30T01:19:54.215Z,4.70
2018-09-30T01:22:22.849Z,4.70
2018-09-30T01:24:51.367Z,4.70
2018-09-30T01:27:19.887Z,4.80
2018-09-30T01:29:48.395Z,4.80
2018-09-30T01:32:16.928Z,4.80
2018-09-30T01:34:45.402Z,4.80
2018-09-30T01:37:13.973Z,4.90
2018-09-30T01:39:42.570Z,4.90
2018-09-30T01:42:11.112Z,4.90
2018-09-30T01:44:39.598Z,5.00
2018-09-30T01:47:08.109Z,5.00
2018-09-30T01:49:36.594Z,5.10
2018-09-30T01:52:16.249Z,5.10
2018-09-30T01:54:44.790Z,5.10
2018-09-30T01:57:13.300Z,5.20
2018-09-30T01:59:41.803Z,5.20
2018-09-30T02:02:10.335Z,5.20
2018-09-30T02:04:38.908Z,5.20
2018-09-30T02:07:07.462Z,5.30
2018-09-30T02:09:36.042Z,5.20
2018-09-30T02:12:04.534Z,5.30
2018-09-30T02:14:33.056Z,5.30
2018-09-30T02:17:01.567Z,5.30
2018-09-30T02:19:30.213Z,5.20
2018-09-30T02:21:58.706Z,5.10
2018-09-30T02:24:27.344Z,5.10
2018-09-30T02:26:55.820Z,5.00
2018-09-30T02:29:24.329Z,4.90
2018-09-30T02:31:52.813Z,4.80
2018-09-30T02:34:21.389Z,4.80
2018-09-30T02:36:49.949Z,4.70
2018-09-30T02:39:18.538Z,4.60
2018-09-30T02:41:47.052Z,4.60
2018-09-30T02:44:16.109Z,4.50
2018-09-30T02:46:44.614Z,4.50
2018-09-30T02:49:13.177Z,4.50
2018-09-30T02:51:41.730Z,4.40
2018-09-30T02:54:10.281Z,4.40
2018-09-30T02:56:38.774Z,4.30
2018-09-30T02:59:07.345Z,4.30
2018-09-30T03:01:35.873Z,4.20
2018-09-30T03:04:04.394Z,4.20
2018-09-30T03:06:38.225Z,4.10
2018-09-30T03:09:18.067Z,4.10
2018-09-30T03:11:46.621Z,4.10
2018-09-30T03:14:16.115Z,4.00
2018-09-30T03:16:45.582Z,4.00
2018-09-30T03:19:14.531Z,4.00
2018-09-30T03:21:43.140Z,4.00
2018-09-30T03:24:12.290Z,3.90
2018-09-30T03:26:41.585Z,3.90
2018-09-30T03:29:10.118Z,3.90
2018-09-30T03:31:38.614Z,3.90
2018-09-30T03:34:07.551Z,3.90
2018-09-30T03:36:36.100Z,3.80
2018-09-30T03:39:05.449Z,3.80
2018-09-30T03:41:33.929Z,3.80
2018-09-30T03:44:02.519Z,3.80
2018-09-30T03:46:31.137Z,3.80
2018-09-30T03:48:59.658Z,3.70
2018-09-30T03:51:28.194Z,3.70
2018-09-30T03:53:57.719Z,3.70
2018-09-30T03:56:26.241Z,3.70
2018-09-30T03:58:54.741Z,3.70
2018-09-30T04:01:23.225Z,3.70
2018-09-30T04:03:51.775Z,3.60
2018-09-30T04:06:20.247Z,3.60
2018-09-30T04:08:48.748Z,3.60
2018-09-30T04:11:17.255Z,3.60
2018-09-30T04:13:45.757Z,3.60
2018-09-30T04:16:14.289Z,3.60
2018-09-30T04:18:42.807Z,3.60
2018-09-30T04:21:11.408Z,3.60
2018-09-30T04:23:39.906Z,3.60
2018-09-30T04:26:09.371Z,3.60
2018-09-30T04:28:37.863Z,3.60
2018-09-30T04:31:06.493Z,3.50
2018-09-30T04:33:35.020Z,3.50
2018-09-30T04:36:03.630Z,3.50
2018-09-30T04:38:32.173Z,3.50
2018-09-30T04:41:00.681Z,3.50
2018-09-30T04:43:29.177Z,3.50
2018-09-30T04:45:58.561Z,3.50
2018-09-30T04:48:27.045Z,3.40
2018-09-30T04:50:56.220Z,3.40
2018-09-30T04:53:24.765Z,3.40
2018-09-30T04:55:53.270Z,3.40
2018-09-30T04:58:21.808Z,3.40
2018-09-30T05:00:50.359Z,3.40
2018-09-30T05:03:18.870Z,3.40
2018-09-30T05:05:47.377Z,3.40
2018-09-30T05:08:17.056Z,3.40
2018-09-30T05:10:46.271Z,3.40
2018-09-30T05:13:14.832Z,3.40
2018-09-30T05:15:43.323Z,3.40
2018-09-30T05:18:11.819Z,3.40
2018-09-30T05:20:40.372Z,3.40
2018-09-30T05:23:08.878Z,3.40
2018-09-30T05:25:37.440Z,3.40
2018-09-30T05:28:07.210Z,3.40
2018-09-30T05:30:35.760Z,3.50
2018-09-30T05:33:05.248Z,3.50
2018-09-30T05:35:33.758Z,3.50
2018-09-30T05:38:02.312Z,3.50
2018-09-30T05:40:30.839Z,3.50
2018-09-30T05:42:59.364Z,3.50
2018-09-30T05:45:27.932Z,3.50
2018-09-30T05:47:56.502Z,3.60
2018-09-30T05:50:24.981Z,3.60
2018-09-30T05:52:53.559Z,3.70
2018-09-30T05:55:22.119Z,3.70
2018-09-30T05:57:50.723Z,3.80
2018-09-30T06:00:19.226Z,3.80
2018-09-30T06:02:47.788Z,3.90
2018-09-30T06:05:16.328Z,4.00
2018-09-30T06:07:45.131Z,4.00
2018-09-30T06:10:13.598Z,4.10
2018-09-30T06:12:42.134Z,4.20
2018-09-30T06:15:10.642Z,4.20
2018-09-30T06:17:39.198Z,4.30
2018-09-30T06:20:08.114Z,4.30
2018-09-30T06:22:36.637Z,4.40
2018-09-30T06:25:05.191Z,4.50
2018-09-30T06:27:35.394Z,4.60
2018-09-30T06:30:03.897Z,4.80
2018-09-30T06:32:32.387Z,4.90
2018-09-30T06:35:00.926Z,5.00
2018-09-30T06:37:29.478Z,5.10
2018-09-30T06:39:58.034Z,5.20
2018-09-30T06:42:26.514Z,5.20
2018-09-30T06:44:55.157Z,5.30
2018-09-30T06:47:24.186Z,5.40
2018-09-30T06:49:52.782Z,5.40
2018-09-30T06:52:21.322Z,5.50
2018-09-30T06:54:49.907Z,5.60
2018-09-30T06:57:18.424Z,5.70
2018-09-30T06:59:47.262Z,5.80
2018-09-30T07:02:16.366Z,5.80
2018-09-30T07:04:44.893Z,5.90
2018-09-30T07:07:13.357Z,6.00
2018-09-30T07:09:42.104Z,6.10
2018-09-30T07:12:10.610Z,6.20
2018-09-30T07:14:39.136Z,6.30
2018-09-30T07:17:07.875Z,6.40
2018-09-30T07:19:36.486Z,6.50
2018-09-30T07:22:05.009Z,6.60
2018-09-30T07:24:33.611Z,6.70
2018-09-30T07:27:02.126Z,6.90
2018-09-30T07:29:30.674Z,7.00
2018-09-30T07:31:59.216Z,7.10
2018-09-30T07:34:27.707Z,7.20
2018-09-30T07:36:56.210Z,7.40
2018-09-30T07:39:24.763Z,7.50
2018-09-30T07:41:53.277Z,7.60
2018-09-30T07:44:21.841Z,7.70
2018-09-30T07:46:50.471Z,7.90
2018-09-30T07:49:19.208Z,8.10
2018-09-30T07:51:48.245Z,8.30
2018-09-30T07:54:16.813Z,8.40
2018-09-30T07:56:45.361Z,8.50
2018-09-30T07:59:13.836Z,8.70
2018-09-30T08:01:42.401Z,8.80
2018-09-30T08:04:10.958Z,8.90
2018-09-30T08:06:39.639Z,9.00
2018-09-30T08:09:08.972Z,9.20
2018-09-30T08:11:37.593Z,9.30
2018-09-30T08:14:06.160Z,9.40
2018-09-30T08:16:34.742Z,9.60
2018-09-30T08:19:03.305Z,9.70
2018-09-30T08:21:31.947Z,9.80
2018-09-30T08:24:00.643Z,9.90
2018-09-30T08:26:29.105Z,10.00
2018-09-30T08:28:57.718Z,10.10
2018-09-30T08:31:26.237Z,10.20
2018-09-30T08:33:55.608Z,10.30
2018-09-30T08:36:24.127Z,10.40
2018-09-30T08:38:52.682Z,10.60
2018-09-30T08:41:21.342Z,10.70
2018-09-30T08:43:49.963Z,10.80
2018-09-30T08:46:18.627Z,11.00
2018-09-30T08:48:47.546Z,11.10
2018-09-30T08:51:16.084Z,11.20
2018-09-30T08:53:44.662Z,11.30
2018-09-30T08:56:13.140Z,11.30
2018-09-30T08:58:41.626Z,11.50
2018-09-30T09:01:10.164Z,11.50
2018-09-30T09:03:38.677Z,11.60
2018-09-30T09:06:07.312Z,11.70
2018-09-30T09:08:35.844Z,11.80
2018-09-30T09:11:04.362Z,11.90
2018-09-30T09:13:32.876Z,12.00
2018-09-30T09:16:02.072Z,12.10
2018-09-30T09:18:30.617Z,12.10
2018-09-30T09:20:59.251Z,12.20
2018-09-30T09:23:28.634Z,12.30
2018-09-30T09:25:57.145Z,12.40
2018-09-30T09:28:25.709Z,12.50
2018-09-30T09:30:54.267Z,12.50
2018-09-30T09:33:22.865Z,12.70
2018-09-30T09:35:51.388Z,12.70
2018-09-30T09:38:19.968Z,12.80
2018-09-30T09:40:48.528Z,12.90
2018-09-30T09:43:17.032Z,13.00
2018-09-30T09:45:45.596Z,13.00
2018-09-30T09:48:14.124Z,13.10
2018-09-30T09:50:42.711Z,13.10
2018-09-30T09:53:11.250Z,13.20
2018-09-30T09:55:39.838Z,13.20
2018-09-30T09:58:08.317Z,13.30
2018-09-30T10:00:42.109Z,13.30
2018-09-30T10:03:10.648Z,13.40
2018-09-30T10:05:39.194Z,13.40
2018-09-30T10:08:07.794Z,13.50
2018-09-30T10:10:36.648Z,13.60
2018-09-30T10:13:05.192Z,13.60
2018-09-30T10:15:33.763Z,13.70
2018-09-30T10:18:02.317Z,13.80
2018-09-30T10:20:30.809Z,13.80
2018-09-30T10:22:59.357Z,13.80
2018-09-30T10:25:27.918Z,13.90
2018-09-30T10:27:56.504Z,13.90
2018-09-30T10:30:25.060Z,13.90
2018-09-30T10:32:53.633Z,13.90
2018-09-30T10:35:22.146Z,13.90
2018-09-30T10:37:50.674Z,14.00
2018-09-30T10:40:19.203Z,14.10
2018-09-30T10:42:47.737Z,14.10
2018-09-30T10:45:16.570Z,14.20
2018-09-30T10:47:45.153Z,14.20
2018-09-30T10:50:13.734Z,14.30
2018-09-30T10:52:42.267Z,14.30
2018-09-30T10:55:10.833Z,14.40
2018-09-30T10:57:39.345Z,14.50
2018-09-30T11:00:07.855Z,14.60
2018-09-30T11:02:36.392Z,14.60
2018-09-30T11:05:05.635Z,14.70
2018-09-30T11:07:34.293Z,14.80
2018-09-30T11:10:02.911Z,14.90
2018-09-30T11:12:31.471Z,15.00
2018-09-30T11:15:00.052Z,15.20
2018-09-30T11:17:29.741Z,15.30
2018-09-30T11:19:58.283Z,15.40
2018-09-30T11:22:27.738Z,15.60
2018-09-30T11:24:56.157Z,15.70
2018-09-30T11:27:24.892Z,16.00
2018-09-30T11:29:53.444Z,16.30
2018-09-30T11:32:22.006Z,16.60
2018-09-30T11:34:50.558Z,16.90
2018-09-30T11:37:19.108Z,17.20
2018-09-30T11:39:47.667Z,17.50
2018-09-30T11:42:16.167Z,17.80
2018-09-30T11:44:44.709Z,18.20
2018-09-30T11:47:13.228Z,18.60
2018-09-30T11:49:41.832Z,18.80
2018-09-30T11:52:10.427Z,19.00
2018-09-30T11:54:38.963Z,18.90
2018-09-30T11:57:07.446Z,18.80
2018-09-30T11:59:35.970Z,18.60
2018-09-30T12:02:04.570Z,18.50
2018-09-30T12:04:33.102Z,18.40
2018-09-30T12:07:01.643Z,18.30
2018-09-30T12:09:30.130Z,18.10
2018-09-30T12:11:59.590Z,18.00
2018-09-30T12:14:28.199Z,17.90
2018-09-30T12:16:56.686Z,17.90
2018-09-30T12:19:25.183Z,17.90
2018-09-30T12:21:53.690Z,17.90
2018-09-30T12:24:22.200Z,17.90
2018-09-30T12:26:50.726Z,17.90
2018-09-30T12:29:19.232Z,18.00
2018-09-30T12:31:48.457Z,18.30
2018-09-30T12:34:16.969Z,18.70
2018-09-30T12:36:45.450Z,19.10
2018-09-30T12:39:14.025Z,19.60
2018-09-30T12:41:42.554Z,20.30
2018-09-30T12:44:11.157Z,21.00
2018-09-30T12:46:39.678Z,21.50
2018-09-30T12:49:08.270Z,22.10
2018-09-30T12:51:36.807Z,22.60
2018-09-30T12:54:05.324Z,23.20
2018-09-30T12:56:33.891Z,23.80
2018-09-30T12:59:02.391Z,24.00
2018-09-30T13:01:30.966Z,24.40
2018-09-30T13:03:59.626Z,24.50
2018-09-30T13:06:28.157Z,24.70
2018-09-30T13:08:56.763Z,24.70
2018-09-30T13:11:25.802Z,24.80
2018-09-30T13:13:54.366Z,25.00
2018-09-30T13:16:23.650Z,25.20
2018-09-30T13:18:52.195Z,25.50
2018-09-30T13:21:20.700Z,25.50
2018-09-30T13:23:49.240Z,25.50
2018-09-30T13:26:17.745Z,25.70
2018-09-30T13:28:46.497Z,26.30
2018-09-30T13:31:15.052Z,27.90
2018-09-30T13:33:43.609Z,32.50
2018-09-30T13:36:12.159Z,36.40
2018-09-30T13:38:40.702Z,39.50
2018-09-30T13:41:09.560Z,41.80
2018-09-30T13:43:37.971Z,42.50
2018-09-30T13:46:06.654Z,42.80
2018-09-30T13:48:35.190Z,44.30
2018-09-30T13:51:03.784Z,43.00
2018-09-30T13:53:32.390Z,42.50
2018-09-30T13:56:00.948Z,39.70
2018-09-30T13:58:30.164Z,36.40
2018-09-30T14:00:58.654Z,34.00
2018-09-30T14:03:27.223Z,32.20
2018-09-30T14:05:55.823Z,31.30
2018-09-30T14:08:24.358Z,30.70
2018-09-30T14:10:52.890Z,29.90
2018-09-30T14:13:22.626Z,29.40
2018-09-30T14:15:51.142Z,29.90
2018-09-30T14:18:19.638Z,30.00
2018-09-30T14:20:48.139Z,30.10
2018-09-30T14:23:16.676Z,30.10
2018-09-30T14:25:45.257Z,29.60
2018-09-30T14:28:13.813Z,29.00
2018-09-30T14:30:42.364Z,28.50
2018-09-30T14:33:11.669Z,28.00
2018-09-30T14:35:40.211Z,27.70
2018-09-30T14:38:08.722Z,27.20
2018-09-30T14:40:37.247Z,26.50
2018-09-30T14:43:05.778Z,25.90
2018-09-30T14:45:34.328Z,25.50
2018-09-30T14:48:02.879Z,25.10
2018-09-30T14:50:31.933Z,24.80
2018-09-30T14:53:00.461Z,24.40
2018-09-30T14:55:29.430Z,24.10
2018-09-30T14:57:58.558Z,23.90
2018-09-30T15:00:27.110Z,23.70
2018-09-30T15:02:56.239Z,23.50
2018-09-30T15:05:24.761Z,23.10
2018-09-30T15:07:53.357Z,22.80
2018-09-30T15:10:21.930Z,22.40
2018-09-30T15:12:50.449Z,22.00
2018-09-30T15:15:18.938Z,21.80
2018-09-30T15:17:47.471Z,21.40
2018-09-30T15:20:16.004Z,21.20
2018-09-30T15:22:44.520Z,21.00
2018-09-30T15:25:13.066Z,20.70
2018-09-30T15:27:41.608Z,20.50
2018-09-30T15:30:10.093Z,20.20
2018-09-30T15:32:38.630Z,20.00
2018-09-30T15:35:07.151Z,19.70
2018-09-30T15:37:35.697Z,19.40
2018-09-30T15:40:04.201Z,19.20
2018-09-30T15:42:32.795Z,19.00
2018-09-30T15:45:01.293Z,18.80
2018-09-30T15:47:29.769Z,18.50
2018-09-30T15:49:58.530Z,18.30
2018-09-30T15:52:27.353Z,18.10
2018-09-30T15:54:55.911Z,17.90
2018-09-30T15:57:24.436Z,17.80
2018-09-30T15:59:52.956Z,17.60
2018-09-30T16:02:21.495Z,17.50
2018-09-30T16:04:49.996Z,17.50
2018-09-30T16:07:18.543Z,17.30
2018-09-30T16:09:47.063Z,17.30
2018-09-30T16:12:15.601Z,17.10
2018-09-30T16:14:44.134Z,17.00
2018-09-30T16:17:12.641Z,16.80
2018-09-30T16:19:41.169Z,16.70
2018-09-30T16:22:09.701Z,16.50
2018-09-30T16:24:38.221Z,16.30
2018-09-30T16:27:06.747Z,16.20
2018-09-30T16:29:35.253Z,16.00
2018-09-30T16:32:03.812Z,15.90
2018-09-30T16:34:32.333Z,15.80
2018-09-30T16:37:00.902Z,15.60
2018-09-30T16:39:29.425Z,15.60
2018-09-30T16:41:57.951Z,15.50
2018-09-30T16:44:26.502Z,15.40
2018-09-30T16:46:55.001Z,15.30
2018-09-30T16:49:23.507Z,15.30
2018-09-30T16:51:52.063Z,15.20
2018-09-30T16:54:20.663Z,15.10
2018-09-30T16:56:49.188Z,15.00
2018-09-30T16:59:17.707Z,15.00
2018-09-30T17:01:46.215Z,14.90
2018-09-30T17:04:14.785Z,14.80
2018-09-30T17:06:43.368Z,14.80
2018-09-30T17:09:11.856Z,14.70
2018-09-30T17:11:40.361Z,14.60
2018-09-30T17:14:08.959Z,14.60
2018-09-30T17:16:37.488Z,14.50
2018-09-30T17:19:06.562Z,14.50
2018-09-30T17:21:35.071Z,14.40
2018-09-30T17:24:03.601Z,14.40
2018-09-30T17:26:32.153Z,14.40
2018-09-30T17:29:00.702Z,14.30
2018-09-30T17:31:29.234Z,14.30
2018-09-30T17:33:57.740Z,14.30
2018-09-30T17:36:26.259Z,14.20
2018-09-30T17:38:55.537Z,14.20
2018-09-30T17:41:24.045Z,14.20
2018-09-30T17:43:52.608Z,14.10
2018-09-30T17:46:21.082Z,14.10
2018-09-30T17:48:49.644Z,14.00
2018-09-30T17:51:18.144Z,14.00
2018-09-30T17:53:47.197Z,14.00
2018-09-30T17:56:15.694Z,14.00
2018-09-30T17:58:44.368Z,14.00
2018-09-30T18:01:12.909Z,13.90
2018-09-30T18:03:42.075Z,13.90
2018-09-30T18:06:10.613Z,13.80
2018-09-30T18:08:39.122Z,13.80
2018-09-30T18:11:08.225Z,13.80
2018-09-30T18:13:36.725Z,13.80
2018-09-30T18:16:05.269Z,13.70
2018-09-30T18:18:33.921Z,13.70
2018-09-30T18:21:02.642Z,13.70
2018-09-30T18:23:31.511Z,13.70
2018-09-30T18:26:00.367Z,13.60
2018-09-30T18:28:29.209Z,13.60
2018-09-30T18:30:57.979Z,13.60
2018-09-30T18:33:26.566Z,13.60
2018-09-30T18:35:55.141Z,13.60
2018-09-30T18:38:23.679Z,13.60
2018-09-30T18:40:52.355Z,13.60
2018-09-30T18:43:21.321Z,13.70
2018-09-30T18:45:50.137Z,13.70
2018-09-30T18:48:18.996Z,13.80
2018-09-30T18:50:47.884Z,13.80
2018-09-30T18:53:16.860Z,13.90
2018-09-30T18:55:45.670Z,13.90
2018-09-30T18:58:14.519Z,13.90
2018-09-30T19:00:43.379Z,13.80
2018-09-30T19:03:12.801Z,13.80
2018-09-30T19:05:41.645Z,13.70
2018-09-30T19:08:10.510Z,13.70
2018-09-30T19:10:39.361Z,13.60
2018-09-30T19:13:08.174Z,13.60
2018-09-30T19:15:37.009Z,13.50
2018-09-30T19:18:05.836Z,13.50
2018-09-30T19:20:34.664Z,13.50
2018-09-30T19:23:03.557Z,13.40
2018-09-30T19:25:32.170Z,13.40
2018-09-30T19:28:00.745Z,13.40
2018-09-30T19:30:29.279Z,13.40
2018-09-30T19:32:57.840Z,13.30
2018-09-30T19:35:26.356Z,13.30
2018-09-30T19:37:54.880Z,13.30
2018-09-30T19:40:24.164Z,13.30
2018-09-30T19:42:52.717Z,13.20
2018-09-30T19:45:21.261Z,13.20
2018-09-30T19:47:49.773Z,13.20
2018-09-30T19:50:18.373Z,13.20
2018-09-30T19:52:46.892Z,13.20
2018-09-30T19:55:15.531Z,13.10
2018-09-30T19:57:44.056Z,13.10
2018-09-30T20:00:12.609Z,13.20
2018-09-30T20:02:41.149Z,13.20
2018-09-30T20:05:09.716Z,13.20
2018-09-30T20:07:38.312Z,13.30
2018-09-30T20:10:06.872Z,13.20
2018-09-30T20:12:35.377Z,13.30
2018-09-30T20:15:04.007Z,13.30
2018-09-30T20:17:32.498Z,13.30
2018-09-30T20:20:01.148Z,13.30
2018-09-30T20:22:29.688Z,13.30
2018-09-30T20:24:58.303Z,13.30
2018-09-30T20:27:26.743Z,13.40
2018-09-30T20:29:55.269Z,13.40
2018-09-30T20:32:23.906Z,13.30
2018-09-30T20:34:52.430Z,13.30
2018-09-30T20:37:21.144Z,13.30
2018-09-30T20:39:49.706Z,13.30
2018-09-30T20:42:18.195Z,13.20
2018-09-30T20:44:46.696Z,13.10
2018-09-30T20:47:15.242Z,13.10
2018-09-30T20:49:43.785Z,13.00
2018-09-30T20:52:12.336Z,13.00
2018-09-30T20:54:40.922Z,12.90
2018-09-30T20:57:09.492Z,12.90
2018-09-30T20:59:38.102Z,12.90
2018-09-30T21:02:07.012Z,12.90
2018-09-30T21:04:35.512Z,12.90
2018-09-30T21:07:04.131Z,12.80
2018-09-30T21:09:32.656Z,12.80
2018-09-30T21:12:01.183Z,12.70
2018-09-30T21:14:29.723Z,12.70
2018-09-30T21:16:58.255Z,12.60
2018-09-30T21:19:26.773Z,12.60
2018-09-30T21:21:55.317Z,12.60
2018-09-30T21:24:23.982Z,12.50
2018-09-30T21:26:52.490Z,12.50
2018-09-30T21:29:21.035Z,12.40
2018-09-30T21:31:49.571Z,12.30
2018-09-30T21:34:18.727Z,12.30
2018-09-30T21:36:47.229Z,12.20
2018-09-30T21:39:15.788Z,12.10
2018-09-30T21:41:44.367Z,12.10
2018-09-30T21:44:12.981Z,12.00
2018-09-30T21:46:41.617Z,11.90
2018-09-30T21:49:10.723Z,11.80
2018-09-30T21:51:39.172Z,11.80
2018-09-30T21:54:07.687Z,11.70
2018-09-30T21:56:36.215Z,11.60
2018-09-30T21:59:04.691Z,11.50
2018-09-30T22:01:33.223Z,11.50
2018-09-30T22:04:01.761Z,11.40
2018-09-30T22:06:30.303Z,11.40
2018-09-30T22:08:58.819Z,11.30
2018-09-30T22:11:27.372Z,11.20
2018-09-30T22:13:55.879Z,11.20
2018-09-30T22:16:24.434Z,11.20
2018-09-30T22:18:52.946Z,11.10
2018-09-30T22:21:21.470Z,11.10
2018-09-30T22:23:50.007Z,11.00
2018-09-30T22:26:18.571Z,11.00
2018-09-30T22:28:47.068Z,11.00
2018-09-30T22:31:15.773Z,11.10
2018-09-30T22:33:44.377Z,11.20
2018-09-30T22:36:12.910Z,11.30
2018-09-30T22:38:41.439Z,11.40
2018-09-30T22:41:09.953Z,11.40
2018-09-30T22:43:38.452Z,11.40
2018-09-30T22:46:07.019Z,11.40
2018-09-30T22:48:35.575Z,11.50
2018-09-30T22:51:04.145Z,11.50
2018-09-30T22:53:32.804Z,11.50
2018-09-30T22:56:01.331Z,11.60
2018-09-30T22:58:29.891Z,11.60
2018-09-30T23:00:58.421Z,11.60
2018-09-30T23:03:27.114Z,11.60
2018-09-30T23:05:55.629Z,11.50
2018-09-30T23:08:24.499Z,11.50
2018-09-30T23:10:53.049Z,11.50
2018-09-30T23:13:21.552Z,11.50
2018-09-30T23:15:50.071Z,11.60
2018-09-30T23:18:18.590Z,11.60
2018-09-30T23:20:47.123Z,11.50
2018-09-30T23:23:15.673Z,11.40
2018-09-30T23:25:44.283Z,11.40
2018-09-30T23:28:12.914Z,11.40
2018-09-30T23:30:41.424Z,11.40
2018-09-30T23:33:09.955Z,11.40
2018-09-30T23:35:38.488Z,11.50
2018-09-30T23:38:07.013Z,11.50
2018-09-30T23:40:35.553Z,11.50
2018-09-30T23:43:04.078Z,11.50
2018-09-30T23:45:32.565Z,11.60
2018-09-30T23:48:01.132Z,11.60
2018-09-30T23:50:29.682Z,11.60
2018-09-30T23:52:58.243Z,11.70
2018-09-30T23:55:26.771Z,11.70
2018-09-30T23:58:11.954Z,11.80
